Time;durP1;ratioP1;P1;durP2;ratioP2;P2;SDS_P1;SDS_P2;PMS_P1;PMS_P2;Temp;Humidity;BMP_temperature;BMP_pressure;BME280_temperature;BME280_humidity;BME280_pressure;Samples;Min_cycle;Max_cycle;Signal;HPM_P1;HPM_P2
2023/09/30 00:01:18;;;;;;;8.20;7.10;;;;;;;15.24;72.97;97105.05;112127;1244;23203;-81
2023/09/30 00:03:47;;;;;;;11.40;7.00;;;;;;;15.27;72.98;97100.20;112106;1244;22510;-81
2023/09/30 00:06:16;;;;;;;8.30;7.00;;;;;;;15.33;72.82;97106.55;112144;1244;23920;-81
2023/09/30 00:08:45;;;;;;;10.10;6.80;;;;;;;15.34;72.70;97103.71;112098;1244;25409;-82
2023/09/30 00:11:18;;;;;;;11.70;7.50;;;;;;;15.35;72.64;97103.98;112093;1244;22616;-81
2023/09/30 00:13:49;;;;;;;10.70;7.60;;;;;;;15.33;72.49;97100.52;112062;1244;62387;-81
2023/09/30 00:16:20;;;;;;;10.00;6.80;;;;;;;15.31;72.41;97100.81;112107;1244;22594;-81
2023/09/30 00:18:51;;;;;;;10.10;7.90;;;;;;;15.32;72.43;97100.54;112130;1244;22683;-82
2023/09/30 00:21:21;;;;;;;8.30;6.80;;;;;;;15.33;72.33;97100.89;112101;1244;22513;-82
2023/09/30 00:23:50;;;;;;;12.90;8.30;;;;;;;15.29;72.24;97102.54;112118;1244;22537;-82
2023/09/30 00:26:20;;;;;;;11.50;7.70;;;;;;;15.23;72.31;97102.01;112113;1244;22509;-82
2023/09/30 00:28:49;;;;;;;10.50;7.20;;;;;;;15.18;72.26;97101.50;112141;1244;22626;-82
2023/09/30 00:31:17;;;;;;;10.20;7.70;;;;;;;15.13;72.43;97102.14;112125;1244;24483;-82
2023/09/30 00:33:47;;;;;;;11.00;7.70;;;;;;;15.10;72.42;97097.92;112082;1244;27504;-82
2023/09/30 00:36:16;;;;;;;13.00;7.60;;;;;;;15.07;72.48;97093.86;112119;1244;22613;-81
2023/09/30 00:38:45;;;;;;;11.00;7.30;;;;;;;15.07;72.54;97090.35;111986;1244;22566;-82
2023/09/30 00:41:18;;;;;;;12.50;8.40;;;;;;;15.05;72.52;97091.00;112185;1244;22506;-82
2023/09/30 00:43:50;;;;;;;11.40;7.70;;;;;;;15.03;72.54;97086.38;112133;1244;24214;-83
2023/09/30 00:46:28;;;;;;;10.10;7.10;;;;;;;15.03;72.55;97087.14;112158;1244;22520;-82
2023/09/30 00:49:00;;;;;;;10.10;7.20;;;;;;;15.01;72.56;97085.26;112199;1244;24192;-82
2023/09/30 00:51:29;;;;;;;11.10;7.60;;;;;;;15.01;72.56;97082.52;112155;1244;23286;-82
2023/09/30 00:54:01;;;;;;;10.30;7.30;;;;;;;15.02;72.61;97081.55;112131;1244;24776;-82
2023/09/30 00:56:32;;;;;;;9.90;7.70;;;;;;;15.00;72.52;97081.16;112137;1244;22578;-82
2023/09/30 00:59:02;;;;;;;9.80;7.40;;;;;;;14.99;72.57;97084.64;112143;1244;22485;-82
2023/09/30 01:01:29;;;;;;;;;;;;;;;15.00;72.47;97086.19;112140;1244;22492;-82
2023/09/30 01:03:59;;;;;;;11.10;7.60;;;;;;;14.99;72.50;97082.26;112134;1244;22716;-83
2023/09/30 01:06:28;;;;;;;8.90;7.30;;;;;;;15.00;72.52;97081.27;112140;1244;22530;-82
2023/09/30 01:08:57;;;;;;;11.70;7.10;;;;;;;15.00;72.45;97081.95;112198;1244;24893;-82
2023/09/30 01:11:26;;;;;;;10.30;7.90;;;;;;;14.97;72.42;97077.86;112145;1244;22512;-82
2023/09/30 01:13:54;;;;;;;9.80;7.20;;;;;;;14.95;72.44;97075.77;110547;1244;2053935;-82
2023/09/30 01:16:23;;;;;;;9.80;7.50;;;;;;;14.94;72.48;97074.09;112140;1244;22663;-82
2023/09/30 01:18:52;;;;;;;8.40;7.40;;;;;;;14.91;72.48;97075.70;112148;1244;23292;-82
2023/09/30 01:21:26;;;;;;;8.40;7.40;;;;;;;14.91;72.47;97077.14;112107;1244;23226;-82
2023/09/30 01:23:56;;;;;;;10.40;7.60;;;;;;;14.90;72.61;97076.48;112074;1244;22569;-82
2023/09/30 01:26:24;;;;;;;11.40;7.40;;;;;;;14.92;72.56;97071.75;112133;1244;23222;-82
2023/09/30 01:28:52;;;;;;;10.60;7.70;;;;;;;14.94;72.47;97073.33;112129;1244;22643;-82
2023/09/30 01:31:21;;;;;;;8.60;7.10;;;;;;;14.94;72.36;97071.58;112142;1244;22516;-82
2023/09/30 01:33:49;;;;;;;9.80;7.30;;;;;;;14.94;72.39;97071.41;111742;1244;94028;-82
2023/09/30 01:36:17;;;;;;;12.60;7.50;;;;;;;14.93;72.48;97072.11;112124;1244;22510;-82
2023/09/30 01:38:46;;;;;;;12.00;7.30;;;;;;;14.92;72.36;97070.73;112114;1244;23399;-82
2023/09/30 01:41:16;;;;;;;10.50;7.10;;;;;;;14.91;72.38;97066.20;112121;1244;22536;-82
2023/09/30 01:43:45;;;;;;;12.10;7.90;;;;;;;14.90;72.38;97066.01;112140;1244;22542;-83
2023/09/30 01:46:13;;;;;;;9.30;7.30;;;;;;;14.88;72.37;97063.23;112122;1244;22530;-82
2023/09/30 01:48:42;;;;;;;10.20;7.90;;;;;;;14.86;72.31;97062.83;112101;1244;22508;-82
2023/09/30 01:51:10;;;;;;;7.80;6.80;;;;;;;14.86;72.43;97061.44;112144;1244;22465;-82
2023/09/30 01:53:43;;;;;;;11.60;7.70;;;;;;;14.84;72.38;97058.48;112044;1244;144603;-82
2023/09/30 01:56:11;;;;;;;11.50;7.80;;;;;;;14.84;72.40;97059.01;112118;1244;22531;-82
2023/09/30 01:58:40;;;;;;;11.60;7.70;;;;;;;14.80;72.41;97054.73;112165;1244;22505;-82
2023/09/30 02:01:09;;;;;;;9.00;7.20;;;;;;;14.82;72.30;97055.91;112161;1244;22508;-82
2023/09/30 02:03:38;;;;;;;8.50;7.50;;;;;;;14.81;72.34;97054.96;112095;1244;50265;-82
2023/09/30 02:06:10;;;;;;;11.80;7.60;;;;;;;14.80;72.35;97056.96;112128;1244;22513;-82
2023/09/30 02:08:38;;;;;;;11.30;6.90;;;;;;;14.80;72.35;97057.39;112084;1244;25404;-83
2023/09/30 02:11:06;;;;;;;10.60;7.30;;;;;;;14.80;72.36;97054.09;112090;1244;22515;-83
2023/09/30 02:13:35;;;;;;;8.30;7.10;;;;;;;14.81;72.38;97054.80;112077;1244;22516;-82
2023/09/30 02:16:04;;;;;;;8.40;6.70;;;;;;;14.82;72.28;97053.94;112060;1244;24363;-82
2023/09/30 02:18:33;;;;;;;10.50;8.00;;;;;;;14.82;72.32;97055.31;111833;1244;22476;-82
2023/09/30 02:21:01;;;;;;;;;;;;;;;14.81;72.26;97059.56;112095;1244;22472;-82
2023/09/30 02:23:31;;;;;;;12.00;6.60;;;;;;;14.79;72.34;97058.48;112084;1244;23301;-82
2023/09/30 02:26:00;;;;;;;9.80;7.10;;;;;;;14.79;72.28;97058.16;112095;1244;22556;-83
2023/09/30 02:28:32;;;;;;;9.30;7.50;;;;;;;14.79;72.26;97056.98;112084;1244;22544;-83
2023/09/30 02:31:01;;;;;;;9.90;7.60;;;;;;;14.80;72.29;97054.56;112112;1244;24223;-83
2023/09/30 02:33:29;;;;;;;8.40;6.90;;;;;;;14.78;72.22;97052.89;112023;1244;66486;-82
2023/09/30 02:35:59;;;;;;;12.10;7.40;;;;;;;14.78;72.24;97055.55;112108;1244;22513;-82
2023/09/30 02:38:27;;;;;;;10.80;6.90;;;;;;;14.79;72.19;97055.96;112204;1244;22534;-82
2023/09/30 02:40:56;;;;;;;10.00;6.90;;;;;;;14.77;72.20;97052.04;112105;1244;22520;-82
2023/09/30 02:43:24;;;;;;;10.70;7.40;;;;;;;14.77;72.17;97051.50;112090;1244;42626;-82
2023/09/30 02:45:53;;;;;;;10.90;7.80;;;;;;;14.76;72.16;97050.88;112119;1244;24239;-82
2023/09/30 02:48:22;;;;;;;9.30;7.10;;;;;;;14.75;72.24;97051.81;112087;1243;22601;-83
2023/09/30 02:50:50;;;;;;;10.10;7.60;;;;;;;14.75;72.23;97049.52;112116;1244;25205;-82
2023/09/30 02:53:18;;;;;;;10.20;7.60;;;;;;;14.74;72.20;97048.72;112042;1244;75048;-82
2023/09/30 02:55:47;;;;;;;11.20;8.00;;;;;;;14.75;72.22;97045.19;112089;1244;22508;-82
2023/09/30 02:58:15;;;;;;;10.10;7.50;;;;;;;14.75;72.18;97043.64;112105;1244;22528;-83
2023/09/30 03:00:49;;;;;;;13.20;7.10;;;;;;;14.77;72.16;97047.23;112109;1241;22510;-83
2023/09/30 03:03:17;;;;;;;9.00;7.10;;;;;;;14.78;72.17;97048.73;112114;1244;23130;-83
2023/09/30 03:05:47;;;;;;;9.50;7.10;;;;;;;14.78;72.07;97049.10;112106;1244;24244;-82
2023/09/30 03:08:15;;;;;;;10.00;6.70;;;;;;;14.78;72.11;97048.20;112103;1244;25378;-83
2023/09/30 03:10:43;;;;;;;10.20;7.50;;;;;;;14.79;72.10;97048.13;112101;1244;22514;-82
2023/09/30 03:13:12;;;;;;;9.60;7.30;;;;;;;14.80;72.06;97047.41;112084;1244;22684;-82
2023/09/30 03:15:40;;;;;;;9.10;6.90;;;;;;;14.83;72.01;97039.66;112076;1244;22570;-82
2023/09/30 03:18:09;;;;;;;12.00;7.20;;;;;;;14.85;72.03;97043.79;112121;1244;22596;-82
2023/09/30 03:20:40;;;;;;;9.80;7.20;;;;;;;14.82;71.92;97041.02;112075;1244;24004;-82
2023/09/30 03:23:09;;;;;;;10.20;7.20;;;;;;;14.81;71.88;97042.73;112073;1244;38110;-82
2023/09/30 03:25:38;;;;;;;9.50;7.00;;;;;;;14.79;71.85;97039.80;112076;1244;22491;-82
2023/09/30 03:28:06;;;;;;;9.40;7.80;;;;;;;14.78;71.97;97038.73;112087;1244;22491;-83
2023/09/30 03:30:35;;;;;;;11.10;7.40;;;;;;;14.76;71.96;97040.61;112126;1228;22540;-83
2023/09/30 03:33:04;;;;;;;12.80;7.60;;;;;;;14.76;71.96;97035.77;112054;1243;23885;-83
2023/09/30 03:35:32;;;;;;;8.60;7.40;;;;;;;14.76;72.01;97034.00;112084;1244;25225;-83
2023/09/30 03:38:02;;;;;;;9.80;7.10;;;;;;;14.78;71.98;97031.05;112096;1244;22508;-82
2023/09/30 03:40:33;;;;;;;9.90;6.40;;;;;;;14.79;71.99;97030.44;112086;1244;22541;-82
2023/09/30 03:43:03;;;;;;;8.40;7.50;;;;;;;14.80;71.94;97029.33;112090;1244;42494;-82
2023/09/30 03:45:32;;;;;;;11.60;8.20;;;;;;;14.80;71.94;97029.85;112085;1244;22522;-82
2023/09/30 03:48:03;;;;;;;9.90;7.40;;;;;;;14.80;71.98;97027.38;112118;1244;25449;-82
2023/09/30 03:50:31;;;;;;;9.70;7.40;;;;;;;14.82;71.94;97027.30;112114;1244;22502;-82
2023/09/30 03:53:04;;;;;;;9.30;7.20;;;;;;;14.83;71.91;97028.92;112065;1244;22523;-82
2023/09/30 03:55:33;;;;;;;7.60;6.80;;;;;;;14.86;71.91;97030.86;112084;1244;25335;-83
2023/09/30 03:58:03;;;;;;;9.90;7.10;;;;;;;14.88;71.82;97029.80;112083;1244;22588;-81
2023/09/30 04:00:32;;;;;;;10.20;7.50;;;;;;;14.90;71.80;97026.95;112065;1244;22533;-82
2023/09/30 04:03:00;;;;;;;9.50;7.30;;;;;;;14.92;71.71;97026.20;112030;1244;51972;-82
2023/09/30 04:05:31;;;;;;;9.70;7.00;;;;;;;14.91;71.70;97025.41;112107;1244;24210;-82
2023/09/30 04:08:00;;;;;;;10.60;7.00;;;;;;;14.90;71.59;97020.78;112068;1244;22533;-82
2023/09/30 04:10:30;;;;;;;9.50;6.90;;;;;;;14.91;71.71;97020.30;112078;1244;23230;-82
2023/09/30 04:12:58;;;;;;;9.00;6.80;;;;;;;14.92;71.70;97019.59;112047;1244;28657;-82
2023/09/30 04:15:27;;;;;;;12.00;7.60;;;;;;;14.92;71.67;97019.33;112094;1244;22545;-82
2023/09/30 04:17:55;;;;;;;10.60;7.40;;;;;;;14.95;71.65;97016.71;112067;1244;22505;-82
2023/09/30 04:20:26;;;;;;;12.70;7.60;;;;;;;14.99;71.48;97015.76;112080;1244;22596;-82
2023/09/30 04:22:57;;;;;;;9.50;7.30;;;;;;;15.01;71.55;97020.11;112036;1244;45024;-82
2023/09/30 04:25:26;;;;;;;10.20;7.30;;;;;;;14.99;71.51;97016.36;112110;1240;22525;-82
2023/09/30 04:27:54;;;;;;;8.70;6.90;;;;;;;14.98;71.44;97015.74;112045;1244;22627;-82
2023/09/30 04:30:24;;;;;;;8.30;7.10;;;;;;;14.96;71.51;97020.96;112029;1244;22504;-82
2023/09/30 04:32:59;;;;;;;8.40;7.30;;;;;;;14.96;71.51;97020.21;112008;1244;23925;-82
2023/09/30 04:35:30;;;;;;;10.40;7.20;;;;;;;14.96;71.49;97021.06;112055;1244;22534;-82
2023/09/30 04:38:01;;;;;;;8.50;6.30;;;;;;;14.98;71.43;97019.90;112022;1244;22508;-82
2023/09/30 04:40:33;;;;;;;11.20;7.50;;;;;;;15.00;71.39;97017.61;112031;1244;26437;-82
2023/09/30 04:43:06;;;;;;;10.50;6.90;;;;;;;15.02;71.54;97021.31;112008;1244;25831;-81
2023/09/30 04:45:35;;;;;;;9.20;7.30;;;;;;;15.04;71.45;97019.72;111973;1241;22600;-82
2023/09/30 04:48:04;;;;;;;;;;;;;;;15.03;71.44;97018.56;112036;1244;25407;-82
2023/09/30 04:50:32;;;;;;;12.50;7.80;;;;;;;15.04;71.43;97021.70;112022;1244;25349;-82
2023/09/30 04:53:02;;;;;;;9.90;7.50;;;;;;;15.06;71.48;97024.55;110606;1244;1706328;-82
2023/09/30 04:55:30;;;;;;;10.20;7.90;;;;;;;15.13;71.40;97024.47;112054;1244;22550;-82
2023/09/30 04:57:59;;;;;;;8.90;7.00;;;;;;;15.20;71.34;97024.82;112013;1244;22509;-82
2023/09/30 05:00:30;;;;;;;11.50;6.80;;;;;;;15.24;71.28;97030.63;112025;1244;22800;-82
2023/09/30 05:03:07;;;;;;;8.70;7.20;;;;;;;15.25;71.26;97028.34;111974;1244;46267;-82
2023/09/30 05:05:36;;;;;;;9.20;6.60;;;;;;;15.28;71.00;97030.35;112000;1244;25225;-81
2023/09/30 05:08:07;;;;;;;9.30;6.50;;;;;;;15.31;70.96;97035.65;112007;1244;22506;-79
2023/09/30 05:10:36;;;;;;;11.70;7.20;;;;;;;15.32;70.80;97036.86;112066;1244;22683;-79
2023/09/30 05:13:05;;;;;;;8.40;6.50;;;;;;;15.34;70.77;97036.02;110221;1244;2418480;-79
2023/09/30 05:15:35;;;;;;;9.70;7.10;;;;;;;15.34;70.69;97038.75;112065;1244;22506;-79
2023/09/30 05:18:08;;;;;;;9.20;6.70;;;;;;;15.34;70.58;97040.83;112093;1244;22478;-79
2023/09/30 05:20:38;;;;;;;9.20;7.00;;;;;;;15.37;70.53;97045.58;112053;1244;22546;-78
2023/09/30 05:23:09;;;;;;;10.20;6.70;;;;;;;15.41;70.61;97050.20;112030;1244;26825;-79
2023/09/30 05:25:39;;;;;;;10.80;6.70;;;;;;;15.41;70.60;97049.83;112056;1244;22523;-78
2023/09/30 05:28:13;;;;;;;8.70;6.60;;;;;;;15.41;70.57;97052.27;112006;1244;22554;-79
2023/09/30 05:30:43;;;;;;;10.40;7.60;;;;;;;15.42;70.32;97055.05;112027;1244;22543;-80
2023/09/30 05:33:14;;;;;;;11.50;7.30;;;;;;;15.43;70.23;97052.89;112020;1235;22516;-78
2023/09/30 05:35:51;;;;;;;11.70;7.00;;;;;;;15.43;70.17;97057.41;112083;1244;22524;-79
2023/09/30 05:38:20;;;;;;;10.40;6.50;;;;;;;15.43;70.16;97057.10;112064;1244;22617;-80
2023/09/30 05:40:49;;;;;;;9.60;7.10;;;;;;;15.44;70.20;97064.81;112064;1244;22495;-80
2023/09/30 05:43:18;;;;;;;7.70;6.20;;;;;;;15.46;70.20;97064.52;112046;1244;50958;-80
2023/09/30 05:45:49;;;;;;;9.90;6.60;;;;;;;15.49;70.08;97072.60;112082;1244;22588;-80
2023/09/30 05:48:17;;;;;;;11.80;7.20;;;;;;;15.51;70.17;97072.50;112035;1243;22575;-81
2023/09/30 05:50:50;;;;;;;11.10;6.70;;;;;;;15.54;70.16;97073.73;112042;1244;22505;-81
2023/09/30 05:53:20;;;;;;;8.00;6.20;;;;;;;15.56;70.19;97073.52;111951;1244;89269;-81
2023/09/30 05:55:51;;;;;;;9.90;6.80;;;;;;;15.58;70.24;97071.88;112017;1244;22537;-72
2023/09/30 05:58:23;;;;;;;8.30;6.60;;;;;;;15.57;70.16;97071.45;111665;1244;22625;-72
2023/09/30 06:00:53;;;;;;;8.70;6.90;;;;;;;15.59;70.24;97072.34;111662;1244;25414;-72
2023/09/30 06:03:22;;;;;;;8.70;6.40;;;;;;;15.60;70.15;97071.91;112220;1244;1723339;-73
2023/09/30 06:05:55;;;;;;;8.40;6.50;;;;;;;15.60;70.26;97070.88;111694;1244;22512;-72
2023/09/30 06:08:24;;;;;;;11.00;6.20;;;;;;;15.60;70.33;97072.66;111574;1244;22581;-71
2023/09/30 06:10:58;;;;;;;8.40;6.40;;;;;;;15.62;70.27;97075.88;111749;1244;22486;-72
2023/09/30 06:13:28;;;;;;;11.30;6.50;;;;;;;15.62;70.31;97084.70;111711;1244;22508;-72
2023/09/30 06:15:56;;;;;;;11.60;6.90;;;;;;;15.63;70.27;97086.94;111673;1244;23377;-72
2023/09/30 06:18:25;;;;;;;9.10;7.00;;;;;;;15.65;70.29;97086.59;111740;1244;22490;-71
2023/09/30 06:20:55;;;;;;;8.30;6.60;;;;;;;15.65;70.32;97088.54;111733;1244;22714;-72
2023/09/30 06:23:23;;;;;;;9.10;6.40;;;;;;;15.67;70.32;97092.08;111729;1244;22953;-72
2023/09/30 06:25:53;;;;;;;11.00;7.20;;;;;;;15.69;70.33;97091.52;111723;1244;25317;-72
2023/09/30 06:28:25;;;;;;;10.30;7.10;;;;;;;15.71;70.35;97097.08;111727;1244;22610;-72
2023/09/30 06:30:58;;;;;;;11.20;7.00;;;;;;;15.73;70.34;97100.92;111735;1244;22509;-72
2023/09/30 06:33:29;;;;;;;9.60;7.00;;;;;;;15.74;70.38;97104.17;111746;1244;26537;-71
2023/09/30 06:36:01;;;;;;;12.40;7.40;;;;;;;15.73;70.37;97110.18;111548;1244;22511;-71
2023/09/30 06:38:31;;;;;;;9.90;6.70;;;;;;;15.70;70.29;97113.14;111684;1244;25377;-72
2023/09/30 06:40:59;;;;;;;8.60;6.80;;;;;;;15.65;70.28;97114.70;111678;1244;22490;-72
2023/09/30 06:43:29;;;;;;;8.50;6.90;;;;;;;15.59;70.31;97117.61;111580;1244;22505;-71
2023/09/30 06:45:59;;;;;;;10.90;7.00;;;;;;;15.55;70.37;97120.73;111736;1244;22522;-72
2023/09/30 06:48:26;;;;;;;;;;;;;;;15.53;70.56;97120.88;111613;1240;25443;-72
2023/09/30 06:50:58;;;;;;;8.80;6.30;;;;;;;15.52;70.62;97117.44;111714;1244;22495;-72
2023/09/30 06:53:27;;;;;;;7.90;6.50;;;;;;;15.51;70.83;97123.59;111620;1244;84035;-73
2023/09/30 06:55:56;;;;;;;12.20;6.60;;;;;;;15.52;70.83;97124.92;111689;1244;25378;-73
2023/09/30 06:58:26;;;;;;;8.80;6.70;;;;;;;15.54;71.01;97130.44;111749;1244;22574;-73
2023/09/30 07:00:54;;;;;;;9.60;6.40;;;;;;;15.55;71.12;97133.20;111741;1232;22499;-73
2023/09/30 07:03:23;;;;;;;8.60;6.60;;;;;;;15.56;71.29;97131.25;111690;1244;22553;-73
2023/09/30 07:05:54;;;;;;;10.10;7.00;;;;;;;15.56;71.55;97141.94;111692;1244;22636;-73
2023/09/30 07:08:23;;;;;;;9.90;6.60;;;;;;;15.55;71.96;97141.80;111661;1244;22506;-72
2023/09/30 07:10:52;;;;;;;11.50;7.30;;;;;;;15.50;72.23;97146.86;111677;1244;22480;-71
2023/09/30 07:13:23;;;;;;;9.20;7.00;;;;;;;15.44;72.61;97147.17;111656;1244;24087;-71
2023/09/30 07:15:52;;;;;;;11.70;6.50;;;;;;;15.41;72.78;97150.66;111663;1244;23292;-71
2023/09/30 07:18:21;;;;;;;8.70;6.90;;;;;;;15.40;73.10;97153.41;111677;1244;25212;-72
2023/09/30 07:20:50;;;;;;;8.30;7.40;;;;;;;15.37;73.46;97159.45;111671;1244;22517;-71
2023/09/30 07:23:19;;;;;;;10.20;8.50;;;;;;;15.34;73.83;97161.15;111631;1244;22541;-72
2023/09/30 07:25:48;;;;;;;9.60;7.30;;;;;;;15.29;74.29;97166.52;111629;1244;22542;-71
2023/09/30 07:28:17;;;;;;;12.30;8.30;;;;;;;15.24;74.55;97169.09;111670;1244;25267;-71
2023/09/30 07:30:46;;;;;;;8.80;7.50;;;;;;;15.22;75.01;97173.93;111586;1244;25388;-72
2023/09/30 07:33:15;;;;;;;9.30;7.70;;;;;;;15.20;75.29;97175.50;111562;1244;54556;-71
2023/09/30 07:35:43;;;;;;;11.20;7.40;;;;;;;15.18;75.38;97174.89;111556;1244;25392;-71
2023/09/30 07:38:15;;;;;;;8.50;7.30;;;;;;;15.17;75.51;97169.35;111494;1244;206279;-72
2023/09/30 07:40:43;;;;;;;9.10;7.50;;;;;;;15.17;75.74;97174.53;111661;1244;24217;-72
2023/09/30 07:43:17;;;;;;;12.30;8.20;;;;;;;15.15;75.95;97176.70;111597;1244;24216;-72
2023/09/30 07:45:47;;;;;;;12.20;7.60;;;;;;;15.13;76.19;97182.46;111688;1244;25330;-72
2023/09/30 07:48:16;;;;;;;12.20;8.50;;;;;;;15.12;76.57;97187.82;111657;1244;22545;-71
2023/09/30 07:50:47;;;;;;;11.40;7.80;;;;;;;15.11;76.77;97188.32;111670;1244;22519;-70
2023/09/30 07:53:15;;;;;;;10.20;8.20;;;;;;;15.07;77.06;97190.79;111656;1244;23216;-71
2023/09/30 07:55:47;;;;;;;10.10;7.60;;;;;;;15.06;77.28;97195.13;111648;1244;22535;-71
2023/09/30 07:58:15;;;;;;;10.80;7.80;;;;;;;15.03;77.65;97196.94;111723;1244;25222;-73
2023/09/30 08:00:45;;;;;;;9.00;7.50;;;;;;;15.01;77.98;97195.52;111618;1238;22628;-72
2023/09/30 08:03:19;;;;;;;10.40;7.80;;;;;;;15.02;78.22;97202.56;111703;1244;22502;-72
2023/09/30 08:05:50;;;;;;;11.90;7.90;;;;;;;15.04;78.43;97201.84;111675;1244;22508;-72
2023/09/30 08:08:23;;;;;;;12.80;8.60;;;;;;;15.06;78.57;97203.66;111551;1244;22513;-73
2023/09/30 08:10:56;;;;;;;9.80;8.20;;;;;;;15.07;78.80;97209.23;111644;1244;22659;-75
2023/09/30 08:13:32;;;;;;;11.30;8.60;;;;;;;15.06;79.08;97212.70;111613;1231;42870;-73
2023/09/30 08:16:01;;;;;;;11.90;8.90;;;;;;;15.08;79.56;97221.11;111614;1244;24254;-73
2023/09/30 08:18:32;;;;;;;13.50;8.80;;;;;;;15.09;79.77;97216.55;111677;1244;25237;-73
2023/09/30 08:21:01;;;;;;;10.70;7.80;;;;;;;15.12;79.78;97217.77;111700;1244;22515;-73
2023/09/30 08:23:33;;;;;;;9.90;7.80;;;;;;;15.15;79.92;97217.63;111689;1235;42370;-73
2023/09/30 08:26:05;;;;;;;10.30;8.50;;;;;;;15.15;80.07;97214.85;111804;1241;22493;-73
2023/09/30 08:28:35;;;;;;;12.50;9.10;;;;;;;15.13;80.17;97213.45;111706;1244;24042;-73
2023/09/30 08:31:05;;;;;;;11.50;9.00;;;;;;;15.12;80.59;97213.66;111720;1244;22492;-73
2023/09/30 08:33:35;;;;;;;12.00;9.60;;;;;;;15.12;80.84;97210.10;111734;1244;27017;-74
2023/09/30 08:36:08;;;;;;;11.70;9.10;;;;;;;15.13;81.09;97208.15;111702;1244;22489;-73
2023/09/30 08:38:40;;;;;;;10.00;9.00;;;;;;;15.16;81.37;97205.26;111652;1244;23130;-73
2023/09/30 08:41:11;;;;;;;12.30;9.10;;;;;;;15.22;81.63;97208.34;111756;1244;22493;-73
2023/09/30 08:43:39;;;;;;;;;;;;;;;15.27;81.67;97206.70;111742;1244;25185;-74
2023/09/30 08:46:09;;;;;;;9.50;8.50;;;;;;;15.32;81.77;97205.26;111753;1244;22565;-73
2023/09/30 08:48:38;;;;;;;10.10;8.90;;;;;;;15.35;81.77;97205.33;111688;1244;22508;-73
2023/09/30 08:51:08;;;;;;;11.00;8.80;;;;;;;15.39;82.01;97206.31;111763;1244;23776;-73
2023/09/30 08:53:36;;;;;;;;;;;;;;;15.43;82.05;97205.98;111760;1244;23273;-73
2023/09/30 08:56:09;;;;;;;13.70;8.30;;;;;;;15.49;82.32;97204.44;111739;1244;22485;-73
2023/09/30 08:58:41;;;;;;;10.60;8.80;;;;;;;15.53;82.15;97206.61;111683;1240;25391;-73
2023/09/30 09:01:14;;;;;;;11.70;8.30;;;;;;;15.54;82.16;97211.25;111656;1244;23029;-73
2023/09/30 09:03:44;;;;;;;11.00;9.10;;;;;;;15.54;82.17;97210.23;111530;1244;180640;-73
2023/09/30 09:06:14;;;;;;;11.50;8.90;;;;;;;15.54;82.06;97216.53;111661;1244;25410;-73
2023/09/30 09:08:43;;;;;;;11.60;9.50;;;;;;;15.55;82.14;97216.52;111734;1244;22491;-73
2023/09/30 09:11:14;;;;;;;11.70;9.60;;;;;;;15.55;82.24;97216.79;111736;1244;22678;-73
2023/09/30 09:13:55;;;;;;;14.20;8.90;;;;;;;15.57;82.31;97214.92;111713;1244;25337;-73
2023/09/30 09:16:25;;;;;;;11.60;9.60;;;;;;;15.58;82.36;97211.23;111763;1244;22492;-73
2023/09/30 09:18:54;;;;;;;;;;;;;;;15.60;82.43;97209.82;111707;1244;22484;-74
2023/09/30 09:21:30;;;;;;;12.10;8.90;;;;;;;15.63;82.42;97206.20;111775;1244;22498;-73
2023/09/30 09:23:59;;;;;;;12.70;10.30;;;;;;;15.69;82.66;97205.86;111632;1244;55854;-74
2023/09/30 09:26:36;;;;;;;12.90;10.30;;;;;;;15.75;82.94;97204.40;111705;1244;22604;-74
2023/09/30 09:29:06;;;;;;;13.50;9.80;;;;;;;15.86;82.99;97204.83;111712;1244;22518;-73
2023/09/30 09:31:37;;;;;;;12.40;9.00;;;;;;;15.97;83.18;97198.46;111669;1244;22509;-72
2023/09/30 09:34:14;;;;;;;11.80;10.60;;;;;;;16.08;83.15;97196.55;111689;1237;24263;-72
2023/09/30 09:36:46;;;;;;;11.40;9.20;;;;;;;16.17;83.02;97194.21;111660;1244;25232;-73
2023/09/30 09:39:31;;;;;;;11.30;8.70;;;;;;;16.24;82.78;97198.08;111707;1244;22495;-73
2023/09/30 09:42:01;;;;;;;13.10;9.00;;;;;;;16.33;82.70;97197.09;111703;1244;25429;-74
2023/09/30 09:44:31;;;;;;;11.40;9.10;;;;;;;16.38;82.52;97191.53;111645;1244;22495;-73
2023/09/30 09:47:06;;;;;;;12.40;9.00;;;;;;;16.43;82.78;97190.05;111682;1244;22520;-73
2023/09/30 09:49:35;;;;;;;15.40;9.80;;;;;;;16.50;82.98;97187.14;111740;1244;22498;-73
2023/09/30 09:52:06;;;;;;;12.10;8.70;;;;;;;16.54;82.88;97189.88;111703;1244;22497;-74
2023/09/30 09:54:39;;;;;;;11.20;9.00;;;;;;;16.56;82.81;97187.27;111607;1244;24254;-73
2023/09/30 09:57:11;;;;;;;10.60;9.10;;;;;;;16.60;82.91;97186.27;111485;1244;22504;-74
2023/09/30 09:59:42;;;;;;;9.90;8.20;;;;;;;16.62;82.91;97190.73;111505;1244;22515;-73
2023/09/30 10:02:22;;;;;;;10.80;8.70;;;;;;;16.65;82.93;97195.33;111547;1244;22522;-73
2023/09/30 10:04:52;;;;;;;12.20;8.10;;;;;;;16.64;82.80;97191.70;111653;1244;22491;-73
2023/09/30 10:07:32;;;;;;;10.90;8.50;;;;;;;16.62;82.75;97193.55;111703;1244;22509;-73
2023/09/30 10:10:06;;;;;;;10.30;8.10;;;;;;;16.61;82.63;97199.31;111800;1244;22512;-73
2023/09/30 10:12:39;;;;;;;12.20;8.80;;;;;;;16.60;82.63;97200.77;111685;1244;25226;-73
2023/09/30 10:15:36;;;;;;;10.30;8.50;;;;;;;16.56;82.34;97202.20;111696;1244;57413;-73
2023/09/30 10:18:07;;;;;;;10.90;8.30;;;;;;;16.52;82.44;97198.81;111662;1244;22611;-73
2023/09/30 10:20:40;;;;;;;11.10;8.30;;;;;;;16.51;82.38;97196.83;111650;1244;22600;-74
2023/09/30 10:23:24;;;;;;;11.50;8.50;;;;;;;16.51;82.52;97197.13;111571;1244;22501;-74
2023/09/30 10:26:15;;;;;;;9.70;8.40;;;;;;;16.51;82.49;97201.67;111712;1244;24237;-73
2023/09/30 10:28:46;;;;;;;14.00;8.20;;;;;;;16.53;82.60;97200.45;111616;1244;25395;-74
2023/09/30 10:31:19;;;;;;;11.10;7.90;;;;;;;16.54;82.73;97201.60;111710;1244;22565;-73
2023/09/30 10:34:31;;;;;;;13.40;8.50;;;;;;;16.58;82.94;97196.80;111797;1241;22541;-73
2023/09/30 10:37:19;;;;;;;11.70;8.70;;;;;;;16.63;82.99;97198.85;111400;1244;24211;-82
2023/09/30 10:40:02;;;;;;;9.90;8.80;;;;;;;16.64;83.25;97200.30;111313;1241;22569;-82
2023/09/30 10:42:49;;;;;;;9.50;8.40;;;;;;;16.65;83.23;97201.32;111476;1244;22488;-82
2023/09/30 10:45:46;;;;;;;11.30;9.30;;;;;;;16.66;83.40;97198.77;111438;1241;22540;-82
2023/09/30 10:48:36;;;;;;;10.60;8.60;;;;;;;16.67;83.48;97201.44;111518;1244;22520;-81
2023/09/30 10:51:18;;;;;;;10.80;8.50;;;;;;;16.69;83.44;97198.31;111624;1244;22502;-81
2023/09/30 10:53:49;;;;;;;10.50;8.50;;;;;;;16.70;83.30;97197.06;111586;1244;25277;-82
2023/09/30 10:56:18;;;;;;;9.50;8.10;;;;;;;16.69;82.91;97195.10;111633;1244;24272;-82
2023/09/30 10:58:46;;;;;;;;;;;;;;;16.68;82.87;97185.53;111737;1244;24064;-82
2023/09/30 11:01:18;;;;;;;10.10;8.50;;;;;;;16.71;83.33;97188.79;111740;1244;22610;-81
2023/09/30 11:03:47;;;;;;;13.40;8.60;;;;;;;16.74;83.14;97189.87;111700;1244;22585;-82
2023/09/30 11:06:17;;;;;;;;;;;;;;;16.76;83.18;97189.91;111746;1244;22465;-82
2023/09/30 11:08:53;;;;;;;11.80;8.70;;;;;;;16.77;83.05;97193.10;111725;1244;22688;-82
2023/09/30 11:11:34;;;;;;;11.60;9.40;;;;;;;16.78;83.00;97192.69;111744;1244;22513;-82
2023/09/30 11:14:05;;;;;;;12.60;10.10;;;;;;;16.78;83.05;97190.88;111707;1244;22511;-82
2023/09/30 11:16:43;;;;;;;10.90;9.80;;;;;;;16.78;82.99;97193.77;111717;1244;22558;-81
2023/09/30 11:19:12;;;;;;;11.10;9.70;;;;;;;16.76;83.11;97194.20;111765;1244;22502;-81
2023/09/30 11:21:43;;;;;;;11.40;9.30;;;;;;;16.76;83.29;97203.36;111685;1244;22488;-81
2023/09/30 11:24:14;;;;;;;11.00;9.80;;;;;;;16.77;83.62;97196.91;111725;1244;22577;-81
2023/09/30 11:26:46;;;;;;;11.70;10.30;;;;;;;16.77;83.70;97200.51;111752;1244;22504;-81
2023/09/30 11:29:21;;;;;;;11.30;9.60;;;;;;;16.76;83.57;97202.70;111729;1244;22569;-81
2023/09/30 11:31:51;;;;;;;14.40;11.20;;;;;;;16.77;83.83;97204.13;111713;1244;24223;-81
2023/09/30 11:34:32;;;;;;;12.50;10.40;;;;;;;16.80;84.33;97203.20;111725;1244;22522;-81
2023/09/30 11:37:02;;;;;;;11.40;9.60;;;;;;;16.82;84.53;97200.09;111718;1244;22530;-81
2023/09/30 11:39:32;;;;;;;14.50;11.10;;;;;;;16.83;84.60;97202.20;111751;1244;22513;-81